SBTT/TBT METAR and TAF weather

Enter ICAO airport designator
Station Type Date Time Source
SBTT METAR 2020/01/22 15:00 UTC NOAA

SBTT 221500Z 31002KT 9999 SCT020 30/25 Q1011


Station Type Date Time Source
SBTT Decoded METAR 2020/01/22 15:00 UTC NOAA

Tabatinga, Brazil (SBTT) 03-40S 069-40W
Jan 22, 2020 - 10:00 AM EST / 2020.01.22 1500 UTC
Wind: from the NW (310 degrees) at 2 MPH (2 KT):0
Visibility: greater than 7 mile(s):0
Sky conditions: partly cloudy
Temperature: 86 F (30 C)
Heat index: 96.8 F (36.0 C):1
Dew Point: 77 F (25 C)
Relative Humidity: 74%
Pressure (altimeter): 29.85 in. Hg (1011 hPa)
ob: SBTT 221500Z 31002KT 9999 SCT020 30/25 Q1011
cycle: 15

Station Type Date Time Source
SBTT TAF 2020/01/22 12:33 UTC NOAA

TAF SBTT 220900Z 2212/2312 32005KT 9999 SCT012TN23/2212Z TX30/2219Z PROB30 2212/2214 8000 SCT007
BECMG 2216/2218 32010KT SCT020 FEW030TCU PROB30 2218/2221 5000 TSRA SCT017 FEW030CB
BECMG 2221/2223 35005KT SCT025
BECMG 2301/2303 SCT015
BECMG 2304/2306 SCT012
BECMG 2308/2310 8000 SCT007
RMK PGS

Example: see airport list